Terminal Aerodrome Forecast
Issued by NWS Jackson, MS

Home | Current Version | Previous Version | Text Only | Print | Product List | Glossary On
Versions: 1 2 3 4 5 6 7 8 9 10 11 12 13 14 15
000
FTUS44 KJAN 272320
TAFMEI
TAF
KMEI 272320Z 2800/2824 VRB03KT P6SM SKC
     FM281000 18004KT 4SM BR BKN008
     FM281400 18013KT P6SM BKN008
     FM281700 18014G24KT P6SM BKN015
     FM282000 18017G27KT P6SM SCT035=

USA.gov is the U.S. government's official web portal to all federal, state and local government web resources and services.